Mosinee, WI

10:32 PM CDT on October 24, 2014 (GMT -0500)
Central Wisconsin | Change Station
CLOSE
Current Station
Airport
Location: Mosinee,
Elevation: 1276 ft
Nearby Weather Stations

Elev 1276 ft 44.78 °N, 89.67 °W | Updated 17 minutes ago

Overcast
Overcast
54 °F
Feels Like 54 °F
N
7
Wind Variable Wind from SW

Today
High -- | Low -- °F
--% Chance of Precip.
Yesterday
High -- | Low -- °F
Precip. -- in
7:26 AM 5:59 PM
New Moon, 2% visible
Pressure 29.87 in
Visibility 7.0 miles
Clouds Overcast 600 ft
Dew Point 54 °F
Humidity 100%
Rainfall 0.00 in
Snow Depth Not available.
UV 0 out of 12
Pollen .60 out of 12
Air Quality Not available.
Flu Activity Sporadic
METAR KCWA 250315Z AUTO 22006KT 7SM OVC006 12/12 A2987 RMK AO2

More Conditions Fewer Conditions

Pressure 29.87 in
Visibility 7.0 miles
Clouds Overcast 600 ft
Dew Point 54 °F
Humidity 100%
Rainfall 0.00 in
Snow Depth Not available.
UV 0 out of 12
Pollen .60 out of 12
Air Quality Not available.
Flu Activity Sporadic
METAR KCWA 250315Z AUTO 22006KT 7SM OVC006 12/12 A2987 RMK AO2

More Conditions Fewer Conditions

10-Day Weather Forecast

Almanac

Astronomy

Oct. 24, 2014 Rise Set
Actual Time 7:26 AM CDT 5:59 PM CDT
Civil Twilight 6:56 AM CDT 6:29 PM CDT
Nautical Twilight 6:21 AM CDT 7:03 PM CDT
Astronomical Twilight 5:48 AM CDT 7:37 PM CDT
Moon 8:06 AM CDT (10/24) 6:37 PM CDT (10/24)
Length of Visible Light 11h 33m
Length of Day
10h 33m
Tomorrow will be 2m 54s shorter.
New Moon, 2% of the Moon is Illuminated
Today
New Moon
Oct 30
First Quarter
Nov 6
Full
Nov 14
Last Quarter
Nov 22
New

Today's Extremes

State Highs State Lows

Community

WunderPhotos

Upload Photos

1,764,771 photos uploaded!

Nearby

Snow Depth

Station Depth Elevation
No new snow has been reported.

Earthquake Activity

City Distance Mag. Time & Date
No recent earthquake activity has been reported nearby.
Minimum magnitude displayed is 2.5.

Coastal Water Temperatures

Place Temperature
No Stations Reporting

Nearby Weather Stations